sensor_id;sensor_type;location;lat;lon;timestamp;P1;durP1;ratioP1;P2;durP2;ratioP2
11655;SDS011;5884;43.618;1.438;2022-07-23T04:45:10;10.23;;;4.63;;
11655;SDS011;5884;43.618;1.438;2022-07-23T04:47:37;9.50;;;4.40;;
11655;SDS011;5884;43.618;1.438;2022-07-23T04:50:05;9.43;;;4.90;;
11655;SDS011;5884;43.618;1.438;2022-07-23T04:52:32;14.97;;;5.17;;
11655;SDS011;5884;43.618;1.438;2022-07-23T04:55:00;11.73;;;4.57;;
11655;SDS011;5884;43.618;1.438;2022-07-23T04:57:27;11.53;;;4.80;;
11655;SDS011;5884;43.618;1.438;2022-07-23T04:59:54;10.93;;;5.13;;
11655;SDS011;5884;43.618;1.438;2022-07-23T05:02:23;13.87;;;5.13;;
11655;SDS011;5884;43.618;1.438;2022-07-23T05:04:50;11.63;;;5.07;;
11655;SDS011;5884;43.618;1.438;2022-07-23T05:07:17;9.23;;;4.47;;
11655;SDS011;5884;43.618;1.438;2022-07-23T05:09:44;9.93;;;4.90;;
11655;SDS011;5884;43.618;1.438;2022-07-23T05:12:11;11.60;;;4.73;;
11655;SDS011;5884;43.618;1.438;2022-07-23T05:14:39;15.77;;;5.10;;
11655;SDS011;5884;43.618;1.438;2022-07-23T05:17:07;12.20;;;4.50;;
11655;SDS011;5884;43.618;1.438;2022-07-23T05:19:35;10.57;;;4.60;;
11655;SDS011;5884;43.618;1.438;2022-07-23T05:22:02;9.00;;;5.03;;
11655;SDS011;5884;43.618;1.438;2022-07-23T05:24:30;11.20;;;4.00;;
11655;SDS011;5884;43.618;1.438;2022-07-23T05:26:57;10.83;;;4.73;;
11655;SDS011;5884;43.618;1.438;2022-07-23T05:29:24;10.03;;;4.03;;
11655;SDS011;5884;43.618;1.438;2022-07-23T05:31:51;7.97;;;4.03;;
11655;SDS011;5884;43.618;1.438;2022-07-23T05:34:18;8.83;;;4.53;;
11655;SDS011;5884;43.618;1.438;2022-07-23T05:36:47;9.00;;;4.10;;
11655;SDS011;5884;43.618;1.438;2022-07-23T05:39:14;10.40;;;4.17;;
11655;SDS011;5884;43.618;1.438;2022-07-23T05:41:42;10.30;;;4.27;;
11655;SDS011;5884;43.618;1.438;2022-07-23T05:44:09;10.50;;;4.17;;
11655;SDS011;5884;43.618;1.438;2022-07-23T05:46:36;8.80;;;4.13;;
11655;SDS011;5884;43.618;1.438;2022-07-23T05:49:03;9.63;;;4.67;;
11655;SDS011;5884;43.618;1.438;2022-07-23T05:51:30;10.63;;;4.27;;
11655;SDS011;5884;43.618;1.438;2022-07-23T05:53:59;13.17;;;4.00;;
11655;SDS011;5884;43.618;1.438;2022-07-23T05:56:26;8.37;;;4.47;;
11655;SDS011;5884;43.618;1.438;2022-07-23T05:58:53;8.83;;;4.50;;
11655;SDS011;5884;43.618;1.438;2022-07-23T06:01:21;7.20;;;4.03;;
11655;SDS011;5884;43.618;1.438;2022-07-23T06:03:48;9.90;;;4.07;;
11655;SDS011;5884;43.618;1.438;2022-07-23T06:06:15;8.07;;;4.33;;
11655;SDS011;5884;43.618;1.438;2022-07-23T06:08:42;9.33;;;4.20;;
11655;SDS011;5884;43.618;1.438;2022-07-23T06:11:11;7.30;;;3.90;;
11655;SDS011;5884;43.618;1.438;2022-07-23T06:13:38;7.20;;;3.57;;
11655;SDS011;5884;43.618;1.438;2022-07-23T06:16:05;8.17;;;3.87;;
11655;SDS011;5884;43.618;1.438;2022-07-23T06:18:34;8.27;;;4.03;;
11655;SDS011;5884;43.618;1.438;2022-07-23T06:21:01;7.77;;;3.90;;
11655;SDS011;5884;43.618;1.438;2022-07-23T06:23:28;7.47;;;3.63;;
11655;SDS011;5884;43.618;1.438;2022-07-23T06:25:55;8.20;;;4.13;;
11655;SDS011;5884;43.618;1.438;2022-07-23T06:28:24;7.43;;;3.87;;
11655;SDS011;5884;43.618;1.438;2022-07-23T06:30:51;9.47;;;3.83;;
11655;SDS011;5884;43.618;1.438;2022-07-23T06:33:18;9.00;;;3.73;;
11655;SDS011;5884;43.618;1.438;2022-07-23T06:35:46;8.63;;;3.67;;
11655;SDS011;5884;43.618;1.438;2022-07-23T06:38:13;8.67;;;3.83;;
11655;SDS011;5884;43.618;1.438;2022-07-23T06:40:40;8.53;;;4.00;;
11655;SDS011;5884;43.618;1.438;2022-07-23T06:43:08;9.43;;;3.97;;
11655;SDS011;5884;43.618;1.438;2022-07-23T06:45:37;8.83;;;3.87;;
11655;SDS011;5884;43.618;1.438;2022-07-23T06:48:04;7.70;;;3.63;;
11655;SDS011;5884;43.618;1.438;2022-07-23T06:50:32;5.77;;;3.67;;
11655;SDS011;5884;43.618;1.438;2022-07-23T06:52:59;11.90;;;3.77;;
11655;SDS011;5884;43.618;1.438;2022-07-23T06:55:27;11.20;;;3.50;;
11655;SDS011;5884;43.618;1.438;2022-07-23T06:57:54;8.10;;;3.53;;
11655;SDS011;5884;43.618;1.438;2022-07-23T07:00:21;8.93;;;3.70;;
11655;SDS011;5884;43.618;1.438;2022-07-23T07:02:54;11.17;;;3.70;;
11655;SDS011;5884;43.618;1.438;2022-07-23T07:05:21;7.87;;;3.57;;
11655;SDS011;5884;43.618;1.438;2022-07-23T07:07:50;9.63;;;3.73;;
11655;SDS011;5884;43.618;1.438;2022-07-23T07:10:17;7.83;;;3.77;;
11655;SDS011;5884;43.618;1.438;2022-07-23T07:12:45;4.20;;;2.90;;
11655;SDS011;5884;43.618;1.438;2022-07-23T07:15:12;8.73;;;2.87;;
11655;SDS011;5884;43.618;1.438;2022-07-23T07:17:39;7.60;;;3.10;;
11655;SDS011;5884;43.618;1.438;2022-07-23T07:20:09;6.67;;;3.23;;
11655;SDS011;5884;43.618;1.438;2022-07-23T07:22:37;5.63;;;3.13;;
11655;SDS011;5884;43.618;1.438;2022-07-23T07:25:05;7.97;;;3.80;;
11655;SDS011;5884;43.618;1.438;2022-07-23T07:27:33;8.10;;;3.37;;
11655;SDS011;5884;43.618;1.438;2022-07-23T07:30:00;9.37;;;3.40;;
11655;SDS011;5884;43.618;1.438;2022-07-23T07:32:28;5.43;;;3.87;;
11655;SDS011;5884;43.618;1.438;2022-07-23T07:34:57;10.50;;;3.57;;
11655;SDS011;5884;43.618;1.438;2022-07-23T07:37:26;6.83;;;3.50;;
11655;SDS011;5884;43.618;1.438;2022-07-23T07:39:53;9.57;;;3.37;;
11655;SDS011;5884;43.618;1.438;2022-07-23T07:42:21;6.20;;;3.30;;
11655;SDS011;5884;43.618;1.438;2022-07-23T07:44:48;7.27;;;3.50;;
11655;SDS011;5884;43.618;1.438;2022-07-23T07:47:15;5.67;;;3.23;;
11655;SDS011;5884;43.618;1.438;2022-07-23T07:49:42;8.73;;;3.60;;
11655;SDS011;5884;43.618;1.438;2022-07-23T07:52:10;5.17;;;3.00;;
11655;SDS011;5884;43.618;1.438;2022-07-23T07:54:38;8.33;;;2.80;;
11655;SDS011;5884;43.618;1.438;2022-07-23T07:57:05;8.97;;;3.83;;
11655;SDS011;5884;43.618;1.438;2022-07-23T07:59:33;6.27;;;2.80;;
11655;SDS011;5884;43.618;1.438;2022-07-23T08:02:00;13.83;;;3.70;;
11655;SDS011;5884;43.618;1.438;2022-07-23T08:04:28;7.03;;;3.27;;
11655;SDS011;5884;43.618;1.438;2022-07-23T08:06:55;4.90;;;3.10;;
11655;SDS011;5884;43.618;1.438;2022-07-23T08:09:23;7.80;;;3.40;;
11655;SDS011;5884;43.618;1.438;2022-07-23T08:11:51;6.97;;;3.40;;
11655;SDS011;5884;43.618;1.438;2022-07-23T08:14:18;5.13;;;2.97;;
11655;SDS011;5884;43.618;1.438;2022-07-23T08:16:45;10.67;;;3.30;;
11655;SDS011;5884;43.618;1.438;2022-07-23T08:19:13;9.00;;;3.00;;
11655;SDS011;5884;43.618;1.438;2022-07-23T08:21:40;5.67;;;3.03;;
11655;SDS011;5884;43.618;1.438;2022-07-23T08:24:07;8.47;;;3.13;;
11655;SDS011;5884;43.618;1.438;2022-07-23T08:26:34;8.67;;;3.50;;
11655;SDS011;5884;43.618;1.438;2022-07-23T08:29:03;7.97;;;3.40;;
11655;SDS011;5884;43.618;1.438;2022-07-23T08:31:30;8.20;;;3.30;;
11655;SDS011;5884;43.618;1.438;2022-07-23T08:33:58;9.67;;;3.10;;
11655;SDS011;5884;43.618;1.438;2022-07-23T08:36:27;8.73;;;3.33;;
11655;SDS011;5884;43.618;1.438;2022-07-23T08:38:57;8.67;;;3.20;;
11655;SDS011;5884;43.618;1.438;2022-07-23T08:41:24;8.23;;;3.50;;
11655;SDS011;5884;43.618;1.438;2022-07-23T08:43:51;8.40;;;3.67;;
11655;SDS011;5884;43.618;1.438;2022-07-23T08:46:20;8.73;;;3.40;;
11655;SDS011;5884;43.618;1.438;2022-07-23T08:48:49;6.43;;;2.97;;
11655;SDS011;5884;43.618;1.438;2022-07-23T08:51:17;7.07;;;2.93;;
11655;SDS011;5884;43.618;1.438;2022-07-23T08:53:45;7.77;;;3.37;;
11655;SDS011;5884;43.618;1.438;2022-07-23T08:56:13;4.67;;;3.00;;
11655;SDS011;5884;43.618;1.438;2022-07-23T08:58:40;7.03;;;3.13;;
11655;SDS011;5884;43.618;1.438;2022-07-23T09:01:07;5.87;;;2.83;;
11655;SDS011;5884;43.618;1.438;2022-07-23T09:03:36;5.73;;;3.03;;
11655;SDS011;5884;43.618;1.438;2022-07-23T09:06:04;7.70;;;3.20;;
11655;SDS011;5884;43.618;1.438;2022-07-23T09:08:36;6.63;;;2.80;;
11655;SDS011;5884;43.618;1.438;2022-07-23T09:11:05;8.23;;;2.87;;
11655;SDS011;5884;43.618;1.438;2022-07-23T09:13:35;4.13;;;2.30;;
11655;SDS011;5884;43.618;1.438;2022-07-23T09:16:07;7.70;;;3.17;;
11655;SDS011;5884;43.618;1.438;2022-07-23T09:18:42;7.63;;;2.43;;
11655;SDS011;5884;43.618;1.438;2022-07-23T09:21:15;6.17;;;2.20;;
11655;SDS011;5884;43.618;1.438;2022-07-23T09:23:47;7.07;;;2.83;;
11655;SDS011;5884;43.618;1.438;2022-07-23T09:26:28;6.10;;;2.80;;
11655;SDS011;5884;43.618;1.438;2022-07-23T09:31:46;4.97;;;2.20;;
11655;SDS011;5884;43.618;1.438;2022-07-23T09:34:18;7.00;;;2.50;;
11655;SDS011;5884;43.618;1.438;2022-07-23T09:36:49;6.73;;;2.30;;
11655;SDS011;5884;43.618;1.438;2022-07-23T09:39:22;6.90;;;2.47;;
11655;SDS011;5884;43.618;1.438;2022-07-23T09:41:53;6.27;;;2.40;;
11655;SDS011;5884;43.618;1.438;2022-07-23T09:44:22;5.63;;;2.40;;
11655;SDS011;5884;43.618;1.438;2022-07-23T09:46:50;5.07;;;2.23;;
11655;SDS011;5884;43.618;1.438;2022-07-23T09:49:25;5.30;;;2.63;;
11655;SDS011;5884;43.618;1.438;2022-07-23T09:51:54;5.33;;;2.27;;
11655;SDS011;5884;43.618;1.438;2022-07-23T09:54:25;4.40;;;2.23;;
11655;SDS011;5884;43.618;1.438;2022-07-23T09:57:03;7.57;;;2.70;;
11655;SDS011;5884;43.618;1.438;2022-07-23T09:59:34;4.07;;;2.20;;
11655;SDS011;5884;43.618;1.438;2022-07-23T10:02:03;7.57;;;2.10;;
11655;SDS011;5884;43.618;1.438;2022-07-23T10:04:34;6.23;;;2.13;;
11655;SDS011;5884;43.618;1.438;2022-07-23T10:07:02;4.07;;;1.97;;
11655;SDS011;5884;43.618;1.438;2022-07-23T10:09:32;4.57;;;2.37;;
11655;SDS011;5884;43.618;1.438;2022-07-23T10:12:02;6.37;;;2.47;;
11655;SDS011;5884;43.618;1.438;2022-07-23T10:14:39;5.57;;;1.90;;
11655;SDS011;5884;43.618;1.438;2022-07-23T10:17:07;3.83;;;1.77;;
11655;SDS011;5884;43.618;1.438;2022-07-23T10:19:36;4.17;;;2.50;;
11655;SDS011;5884;43.618;1.438;2022-07-23T10:22:07;4.83;;;1.60;;
11655;SDS011;5884;43.618;1.438;2022-07-23T10:24:40;4.30;;;1.60;;
11655;SDS011;5884;43.618;1.438;2022-07-23T10:30:20;4.67;;;2.13;;
11655;SDS011;5884;43.618;1.438;2022-07-23T10:33:20;3.63;;;1.93;;
11655;SDS011;5884;43.618;1.438;2022-07-23T10:36:01;4.63;;;1.93;;
11655;SDS011;5884;43.618;1.438;2022-07-23T10:38:37;3.43;;;1.90;;
11655;SDS011;5884;43.618;1.438;2022-07-23T10:41:14;3.90;;;1.50;;
11655;SDS011;5884;43.618;1.438;2022-07-23T10:44:05;4.40;;;1.30;;
11655;SDS011;5884;43.618;1.438;2022-07-23T10:46:34;2.60;;;1.50;;
11655;SDS011;5884;43.618;1.438;2022-07-23T10:49:20;3.27;;;1.80;;
11655;SDS011;5884;43.618;1.438;2022-07-23T10:54:44;3.53;;;1.50;;
11655;SDS011;5884;43.618;1.438;2022-07-23T10:57:14;3.73;;;1.70;;
11655;SDS011;5884;43.618;1.438;2022-07-23T11:02:48;2.30;;;1.30;;
11655;SDS011;5884;43.618;1.438;2022-07-23T11:05:17;3.60;;;1.30;;
11655;SDS011;5884;43.618;1.438;2022-07-23T11:10:46;3.77;;;1.30;;
11655;SDS011;5884;43.618;1.438;2022-07-23T11:13:29;2.70;;;1.67;;
11655;SDS011;5884;43.618;1.438;2022-07-23T11:16:20;2.97;;;1.40;;
11655;SDS011;5884;43.618;1.438;2022-07-23T11:18:56;2.23;;;1.20;;
11655;SDS011;5884;43.618;1.438;2022-07-23T11:21:40;2.40;;;1.30;;
11655;SDS011;5884;43.618;1.438;2022-07-23T11:24:19;3.43;;;1.40;;
11655;SDS011;5884;43.618;1.438;2022-07-23T11:26:50;1.70;;;1.10;;
11655;SDS011;5884;43.618;1.438;2022-07-23T11:37:50;1.87;;;1.20;;
11655;SDS011;5884;43.618;1.438;2022-07-23T11:40:25;3.00;;;1.33;;
11655;SDS011;5884;43.618;1.438;2022-07-23T11:42:54;2.37;;;2.07;;
11655;SDS011;5884;43.618;1.438;2022-07-23T11:45:24;2.87;;;1.60;;
11655;SDS011;5884;43.618;1.438;2022-07-23T11:47:56;2.53;;;1.53;;
11655;SDS011;5884;43.618;1.438;2022-07-23T11:50:23;4.50;;;1.80;;
11655;SDS011;5884;43.618;1.438;2022-07-23T11:52:51;1.87;;;1.57;;
11655;SDS011;5884;43.618;1.438;2022-07-23T11:55:19;2.80;;;1.90;;
11655;SDS011;5884;43.618;1.438;2022-07-23T11:57:48;2.37;;;1.60;;
11655;SDS011;5884;43.618;1.438;2022-07-23T12:00:19;3.27;;;1.70;;
11655;SDS011;5884;43.618;1.438;2022-07-23T12:02:49;2.87;;;1.77;;
11655;SDS011;5884;43.618;1.438;2022-07-23T12:05:19;4.03;;;1.83;;
11655;SDS011;5884;43.618;1.438;2022-07-23T12:07:50;5.73;;;1.80;;
11655;SDS011;5884;43.618;1.438;2022-07-23T12:10:19;5.13;;;2.03;;
11655;SDS011;5884;43.618;1.438;2022-07-23T12:12:51;4.43;;;2.00;;
11655;SDS011;5884;43.618;1.438;2022-07-23T12:15:21;3.83;;;1.93;;
11655;SDS011;5884;43.618;1.438;2022-07-23T12:17:51;3.00;;;1.70;;
11655;SDS011;5884;43.618;1.438;2022-07-23T12:20:20;3.53;;;1.83;;
11655;SDS011;5884;43.618;1.438;2022-07-23T12:22:50;5.57;;;2.40;;
11655;SDS011;5884;43.618;1.438;2022-07-23T12:25:20;4.77;;;2.00;;
11655;SDS011;5884;43.618;1.438;2022-07-23T12:27:59;3.93;;;2.00;;
11655;SDS011;5884;43.618;1.438;2022-07-23T12:30:32;6.37;;;2.10;;
11655;SDS011;5884;43.618;1.438;2022-07-23T12:33:03;4.83;;;1.80;;
11655;SDS011;5884;43.618;1.438;2022-07-23T12:35:33;3.83;;;2.00;;
11655;SDS011;5884;43.618;1.438;2022-07-23T12:38:06;3.53;;;1.90;;
11655;SDS011;5884;43.618;1.438;2022-07-23T12:40:36;6.87;;;2.00;;
11655;SDS011;5884;43.618;1.438;2022-07-23T12:43:11;3.63;;;2.10;;
11655;SDS011;5884;43.618;1.438;2022-07-23T12:45:47;6.63;;;2.47;;
11655;SDS011;5884;43.618;1.438;2022-07-23T12:48:17;4.53;;;2.20;;
11655;SDS011;5884;43.618;1.438;2022-07-23T12:53:38;4.75;;;2.60;;
11655;SDS011;5884;43.618;1.438;2022-07-23T12:56:09;5.43;;;2.30;;
11655;SDS011;5884;43.618;1.438;2022-07-23T12:58:44;4.60;;;2.00;;
11655;SDS011;5884;43.618;1.438;2022-07-23T13:01:23;4.27;;;2.40;;
11655;SDS011;5884;43.618;1.438;2022-07-23T13:03:56;4.07;;;2.30;;
11655;SDS011;5884;43.618;1.438;2022-07-23T13:06:27;5.70;;;2.50;;
11655;SDS011;5884;43.618;1.438;2022-07-23T13:08:55;5.93;;;2.40;;
11655;SDS011;5884;43.618;1.438;2022-07-23T13:11:22;5.97;;;2.97;;
11655;SDS011;5884;43.618;1.438;2022-07-23T13:13:51;11.90;;;5.43;;
11655;SDS011;5884;43.618;1.438;2022-07-23T13:16:19;7.20;;;2.57;;
11655;SDS011;5884;43.618;1.438;2022-07-23T13:18:46;4.43;;;3.10;;
11655;SDS011;5884;43.618;1.438;2022-07-23T13:21:13;5.67;;;2.90;;
11655;SDS011;5884;43.618;1.438;2022-07-23T13:23:41;6.13;;;2.72;;
11655;SDS011;5884;43.618;1.438;2022-07-23T13:26:09;5.43;;;2.80;;
11655;SDS011;5884;43.618;1.438;2022-07-23T13:28:36;5.78;;;2.70;;
11655;SDS011;5884;43.618;1.438;2022-07-23T13:31:05;7.32;;;2.60;;
11655;SDS011;5884;43.618;1.438;2022-07-23T13:33:33;5.18;;;3.15;;
11655;SDS011;5884;43.618;1.438;2022-07-23T13:36:00;4.40;;;2.93;;
11655;SDS011;5884;43.618;1.438;2022-07-23T13:38:29;8.17;;;3.90;;
11655;SDS011;5884;43.618;1.438;2022-07-23T13:40:56;8.20;;;3.63;;
11655;SDS011;5884;43.618;1.438;2022-07-23T13:43:24;7.70;;;4.40;;
11655;SDS011;5884;43.618;1.438;2022-07-23T13:45:52;8.40;;;4.80;;
11655;SDS011;5884;43.618;1.438;2022-07-23T13:48:21;10.17;;;5.13;;
11655;SDS011;5884;43.618;1.438;2022-07-23T13:50:49;9.33;;;4.90;;
11655;SDS011;5884;43.618;1.438;2022-07-23T13:53:17;8.90;;;4.60;;
11655;SDS011;5884;43.618;1.438;2022-07-23T13:55:47;10.57;;;5.63;;
11655;SDS011;5884;43.618;1.438;2022-07-23T13:58:15;5.97;;;3.13;;
11655;SDS011;5884;43.618;1.438;2022-07-23T14:00:46;7.60;;;3.37;;
11655;SDS011;5884;43.618;1.438;2022-07-23T14:03:17;4.00;;;3.45;;
11655;SDS011;5884;43.618;1.438;2022-07-23T14:05:50;8.90;;;3.30;;
11655;SDS011;5884;43.618;1.438;2022-07-23T14:08:18;5.03;;;3.42;;
11655;SDS011;5884;43.618;1.438;2022-07-23T14:10:45;6.97;;;4.60;;
11655;SDS011;5884;43.618;1.438;2022-07-23T14:13:13;11.50;;;7.70;;
11655;SDS011;5884;43.618;1.438;2022-07-23T14:15:40;5.20;;;3.77;;
11655;SDS011;5884;43.618;1.438;2022-07-23T14:18:07;8.70;;;3.35;;
11655;SDS011;5884;43.618;1.438;2022-07-23T14:20:34;6.00;;;3.47;;
11655;SDS011;5884;43.618;1.438;2022-07-23T14:23:03;5.03;;;2.92;;
11655;SDS011;5884;43.618;1.438;2022-07-23T14:25:30;5.78;;;3.40;;
11655;SDS011;5884;43.618;1.438;2022-07-23T14:27:57;6.05;;;3.20;;
11655;SDS011;5884;43.618;1.438;2022-07-23T14:30:24;4.93;;;3.30;;
11655;SDS011;5884;43.618;1.438;2022-07-23T14:32:52;8.43;;;3.88;;
11655;SDS011;5884;43.618;1.438;2022-07-23T14:35:19;3.90;;;3.15;;
11655;SDS011;5884;43.618;1.438;2022-07-23T14:37:47;7.00;;;4.00;;
11655;SDS011;5884;43.618;1.438;2022-07-23T14:40:15;7.10;;;4.18;;
11655;SDS011;5884;43.618;1.438;2022-07-23T14:42:42;4.93;;;3.25;;
11655;SDS011;5884;43.618;1.438;2022-07-23T14:45:10;5.30;;;3.40;;
11655;SDS011;5884;43.618;1.438;2022-07-23T14:47:37;5.32;;;3.42;;
11655;SDS011;5884;43.618;1.438;2022-07-23T14:50:05;5.63;;;3.30;;
11655;SDS011;5884;43.618;1.438;2022-07-23T14:52:33;4.57;;;3.25;;
11655;SDS011;5884;43.618;1.438;2022-07-23T14:55:00;6.20;;;3.03;;
11655;SDS011;5884;43.618;1.438;2022-07-23T14:57:29;7.68;;;3.35;;
11655;SDS011;5884;43.618;1.438;2022-07-23T14:59:56;6.05;;;3.47;;
11655;SDS011;5884;43.618;1.438;2022-07-23T15:02:23;7.60;;;3.38;;
11655;SDS011;5884;43.618;1.438;2022-07-23T15:04:51;7.88;;;3.20;;
11655;SDS011;5884;43.618;1.438;2022-07-23T15:07:18;8.10;;;3.70;;
11655;SDS011;5884;43.618;1.438;2022-07-23T15:09:45;10.73;;;3.60;;
11655;SDS011;5884;43.618;1.438;2022-07-23T15:12:13;8.25;;;3.45;;
11655;SDS011;5884;43.618;1.438;2022-07-23T15:14:42;17.85;;;4.32;;
11655;SDS011;5884;43.618;1.438;2022-07-23T15:17:09;5.63;;;3.35;;
11655;SDS011;5884;43.618;1.438;2022-07-23T15:19:36;4.88;;;3.65;;
11655;SDS011;5884;43.618;1.438;2022-07-23T15:22:04;6.95;;;3.67;;
11655;SDS011;5884;43.618;1.438;2022-07-23T15:24:31;5.82;;;2.88;;
11655;SDS011;5884;43.618;1.438;2022-07-23T15:26:58;9.05;;;3.50;;
11655;SDS011;5884;43.618;1.438;2022-07-23T15:29:25;5.85;;;3.30;;
11655;SDS011;5884;43.618;1.438;2022-07-23T15:31:54;5.10;;;3.22;;
11655;SDS011;5884;43.618;1.438;2022-07-23T15:34:21;6.63;;;3.40;;
11655;SDS011;5884;43.618;1.438;2022-07-23T15:36:48;4.82;;;3.15;;
11655;SDS011;5884;43.618;1.438;2022-07-23T15:39:16;8.07;;;3.40;;
11655;SDS011;5884;43.618;1.438;2022-07-23T15:41:43;4.60;;;3.13;;
11655;SDS011;5884;43.618;1.438;2022-07-23T15:44:10;3.72;;;3.00;;
11655;SDS011;5884;43.618;1.438;2022-07-23T15:46:37;6.00;;;3.53;;
11655;SDS011;5884;43.618;1.438;2022-07-23T15:49:06;4.72;;;3.20;;
11655;SDS011;5884;43.618;1.438;2022-07-23T15:51:33;4.45;;;3.22;;
11655;SDS011;5884;43.618;1.438;2022-07-23T15:54:01;6.72;;;3.55;;
11655;SDS011;5884;43.618;1.438;2022-07-23T15:56:28;7.22;;;3.50;;
11655;SDS011;5884;43.618;1.438;2022-07-23T15:58:55;4.63;;;3.13;;
11655;SDS011;5884;43.618;1.438;2022-07-23T16:01:22;5.63;;;3.40;;
11655;SDS011;5884;43.618;1.438;2022-07-23T16:03:50;6.82;;;3.47;;
11655;SDS011;5884;43.618;1.438;2022-07-23T16:06:18;12.48;;;3.70;;
11655;SDS011;5884;43.618;1.438;2022-07-23T16:08:46;5.97;;;2.97;;
11655;SDS011;5884;43.618;1.438;2022-07-23T16:11:13;4.88;;;3.42;;
11655;SDS011;5884;43.618;1.438;2022-07-23T16:13:41;7.82;;;3.80;;
11655;SDS011;5884;43.618;1.438;2022-07-23T16:16:08;5.88;;;3.20;;
11655;SDS011;5884;43.618;1.438;2022-07-23T16:18:36;4.93;;;3.33;;
11655;SDS011;5884;43.618;1.438;2022-07-23T16:21:04;4.95;;;3.08;;
11655;SDS011;5884;43.618;1.438;2022-07-23T16:23:33;5.68;;;3.17;;
11655;SDS011;5884;43.618;1.438;2022-07-23T16:26:00;6.57;;;3.50;;
11655;SDS011;5884;43.618;1.438;2022-07-23T16:28:27;5.22;;;3.05;;
11655;SDS011;5884;43.618;1.438;2022-07-23T16:30:54;10.68;;;3.88;;
11655;SDS011;5884;43.618;1.438;2022-07-23T16:33:22;6.20;;;3.20;;
11655;SDS011;5884;43.618;1.438;2022-07-23T16:35:50;4.15;;;3.33;;
11655;SDS011;5884;43.618;1.438;2022-07-23T16:38:17;6.85;;;3.13;;
11655;SDS011;5884;43.618;1.438;2022-07-23T16:40:46;8.27;;;3.50;;
11655;SDS011;5884;43.618;1.438;2022-07-23T16:43:13;4.57;;;3.05;;
11655;SDS011;5884;43.618;1.438;2022-07-23T16:45:41;7.90;;;3.50;;
11655;SDS011;5884;43.618;1.438;2022-07-23T16:48:09;5.93;;;3.55;;
11655;SDS011;5884;43.618;1.438;2022-07-23T16:50:37;6.35;;;3.50;;
11655;SDS011;5884;43.618;1.438;2022-07-23T16:53:04;4.72;;;3.38;;
11655;SDS011;5884;43.618;1.438;2022-07-23T16:55:31;7.07;;;3.55;;
11655;SDS011;5884;43.618;1.438;2022-07-23T16:58:00;4.93;;;2.95;;
11655;SDS011;5884;43.618;1.438;2022-07-23T17:00:27;7.35;;;3.30;;
11655;SDS011;5884;43.618;1.438;2022-07-23T17:02:54;9.23;;;3.50;;
11655;SDS011;5884;43.618;1.438;2022-07-23T17:05:22;8.20;;;3.47;;
11655;SDS011;5884;43.618;1.438;2022-07-23T17:07:49;8.70;;;3.78;;
11655;SDS011;5884;43.618;1.438;2022-07-23T17:10:18;8.65;;;3.00;;
11655;SDS011;5884;43.618;1.438;2022-07-23T17:12:47;7.18;;;3.47;;
11655;SDS011;5884;43.618;1.438;2022-07-23T17:15:17;5.82;;;3.05;;
11655;SDS011;5884;43.618;1.438;2022-07-23T17:17:45;5.93;;;3.35;;
11655;SDS011;5884;43.618;1.438;2022-07-23T17:20:12;6.53;;;3.80;;
11655;SDS011;5884;43.618;1.438;2022-07-23T17:22:40;5.18;;;3.38;;
11655;SDS011;5884;43.618;1.438;2022-07-23T17:25:07;3.97;;;2.90;;
11655;SDS011;5884;43.618;1.438;2022-07-23T17:27:38;6.38;;;3.15;;
11655;SDS011;5884;43.618;1.438;2022-07-23T17:30:06;5.85;;;3.28;;
11655;SDS011;5884;43.618;1.438;2022-07-23T17:32:36;4.72;;;3.13;;
11655;SDS011;5884;43.618;1.438;2022-07-23T17:35:03;6.05;;;3.42;;
11655;SDS011;5884;43.618;1.438;2022-07-23T17:37:32;7.07;;;3.42;;
11655;SDS011;5884;43.618;1.438;2022-07-23T17:39:59;4.70;;;3.22;;
11655;SDS011;5884;43.618;1.438;2022-07-23T17:42:27;5.15;;;3.40;;
11655;SDS011;5884;43.618;1.438;2022-07-23T17:44:54;8.80;;;3.20;;
11655;SDS011;5884;43.618;1.438;2022-07-23T17:47:21;8.88;;;3.25;;
11655;SDS011;5884;43.618;1.438;2022-07-23T17:49:50;8.13;;;3.33;;
11655;SDS011;5884;43.618;1.438;2022-07-23T17:52:17;4.00;;;3.15;;
11655;SDS011;5884;43.618;1.438;2022-07-23T17:54:44;6.45;;;3.60;;
11655;SDS011;5884;43.618;1.438;2022-07-23T17:57:12;5.07;;;3.05;;
11655;SDS011;5884;43.618;1.438;2022-07-23T17:59:39;11.88;;;3.72;;
11655;SDS011;5884;43.618;1.438;2022-07-23T18:02:06;7.50;;;3.05;;
11655;SDS011;5884;43.618;1.438;2022-07-23T18:04:33;6.55;;;3.30;;
11655;SDS011;5884;43.618;1.438;2022-07-23T18:07:02;8.65;;;3.63;;
11655;SDS011;5884;43.618;1.438;2022-07-23T18:09:29;5.05;;;3.35;;
11655;SDS011;5884;43.618;1.438;2022-07-23T18:11:56;6.35;;;3.35;;
11655;SDS011;5884;43.618;1.438;2022-07-23T18:14:24;6.05;;;3.13;;
11655;SDS011;5884;43.618;1.438;2022-07-23T18:16:51;7.65;;;3.58;;
11655;SDS011;5884;43.618;1.438;2022-07-23T18:19:18;25.95;;;4.18;;
11655;SDS011;5884;43.618;1.438;2022-07-23T18:21:45;5.32;;;2.97;;
11655;SDS011;5884;43.618;1.438;2022-07-23T18:24:14;7.75;;;3.22;;
11655;SDS011;5884;43.618;1.438;2022-07-23T18:26:41;3.88;;;3.00;;
11655;SDS011;5884;43.618;1.438;2022-07-23T18:29:08;4.35;;;3.30;;
11655;SDS011;5884;43.618;1.438;2022-07-23T18:31:35;6.87;;;3.30;;
11655;SDS011;5884;43.618;1.438;2022-07-23T18:34:04;6.72;;;3.30;;
11655;SDS011;5884;43.618;1.438;2022-07-23T18:36:31;5.80;;;3.38;;
11655;SDS011;5884;43.618;1.438;2022-07-23T18:38:58;9.27;;;3.30;;
11655;SDS011;5884;43.618;1.438;2022-07-23T18:41:28;4.40;;;3.33;;
11655;SDS011;5884;43.618;1.438;2022-07-23T18:43:55;8.02;;;4.07;;
11655;SDS011;5884;43.618;1.438;2022-07-23T18:46:22;5.23;;;3.27;;
11655;SDS011;5884;43.618;1.438;2022-07-23T18:48:49;6.28;;;3.42;;
11655;SDS011;5884;43.618;1.438;2022-07-23T18:51:16;4.95;;;3.30;;
11655;SDS011;5884;43.618;1.438;2022-07-23T18:53:44;6.18;;;4.60;;
11655;SDS011;5884;43.618;1.438;2022-07-23T18:56:11;5.78;;;3.60;;
11655;SDS011;5884;43.618;1.438;2022-07-23T18:58:40;8.90;;;3.67;;
11655;SDS011;5884;43.618;1.438;2022-07-23T19:01:07;4.70;;;3.60;;
11655;SDS011;5884;43.618;1.438;2022-07-23T19:03:36;4.38;;;3.08;;
11655;SDS011;5884;43.618;1.438;2022-07-23T19:06:04;5.93;;;3.87;;
11655;SDS011;5884;43.618;1.438;2022-07-23T19:08:32;9.20;;;3.57;;
11655;SDS011;5884;43.618;1.438;2022-07-23T19:10:59;8.67;;;3.63;;
11655;SDS011;5884;43.618;1.438;2022-07-23T19:13:26;4.77;;;3.60;;
11655;SDS011;5884;43.618;1.438;2022-07-23T19:15:55;6.00;;;3.23;;
11655;SDS011;5884;43.618;1.438;2022-07-23T19:18:26;5.33;;;3.23;;
11655;SDS011;5884;43.618;1.438;2022-07-23T19:20:53;5.70;;;3.67;;
11655;SDS011;5884;43.618;1.438;2022-07-23T19:23:20;7.30;;;4.20;;
11655;SDS011;5884;43.618;1.438;2022-07-23T19:25:48;5.50;;;3.83;;
11655;SDS011;5884;43.618;1.438;2022-07-23T19:28:15;6.80;;;3.93;;
11655;SDS011;5884;43.618;1.438;2022-07-23T19:30:42;6.70;;;3.93;;
11655;SDS011;5884;43.618;1.438;2022-07-23T19:33:11;6.23;;;3.63;;
11655;SDS011;5884;43.618;1.438;2022-07-23T19:35:38;5.10;;;3.50;;
11655;SDS011;5884;43.618;1.438;2022-07-23T19:38:05;7.30;;;4.90;;
11655;SDS011;5884;43.618;1.438;2022-07-23T19:40:33;6.43;;;3.90;;
11655;SDS011;5884;43.618;1.438;2022-07-23T19:43:00;6.13;;;3.73;;
11655;SDS011;5884;43.618;1.438;2022-07-23T19:45:27;6.70;;;4.40;;
11655;SDS011;5884;43.618;1.438;2022-07-23T19:47:54;7.20;;;5.10;;
11655;SDS011;5884;43.618;1.438;2022-07-23T19:50:23;10.20;;;5.50;;
11655;SDS011;5884;43.618;1.438;2022-07-23T19:52:53;11.20;;;7.33;;
11655;SDS011;5884;43.618;1.438;2022-07-23T19:55:21;13.03;;;7.37;;
11655;SDS011;5884;43.618;1.438;2022-07-23T19:57:49;10.63;;;7.00;;
11655;SDS011;5884;43.618;1.438;2022-07-23T20:00:17;12.40;;;7.17;;
11655;SDS011;5884;43.618;1.438;2022-07-23T20:02:45;9.83;;;6.57;;
11655;SDS011;5884;43.618;1.438;2022-07-23T20:05:13;10.37;;;6.30;;
11655;SDS011;5884;43.618;1.438;2022-07-23T20:07:41;9.97;;;5.80;;
11655;SDS011;5884;43.618;1.438;2022-07-23T20:10:09;6.10;;;4.80;;
11655;SDS011;5884;43.618;1.438;2022-07-23T20:12:37;10.07;;;5.03;;
11655;SDS011;5884;43.618;1.438;2022-07-23T20:15:05;7.93;;;4.77;;
11655;SDS011;5884;43.618;1.438;2022-07-23T20:17:34;7.70;;;5.33;;
11655;SDS011;5884;43.618;1.438;2022-07-23T20:20:02;5.57;;;4.40;;